sensor_id;sensor_type;location;lat;lon;timestamp;P1;durP1;ratioP1;P2;durP2;ratioP2
32976;SDS011;72327;50.842;4.450;2023-09-07T00:00:14;13.93;;;8.48;;
32976;SDS011;72327;50.842;4.450;2023-09-07T00:02:40;16.38;;;9.52;;
32976;SDS011;72327;50.842;4.450;2023-09-07T00:05:06;18.67;;;9.40;;
32976;SDS011;72327;50.842;4.450;2023-09-07T00:07:32;11.70;;;8.60;;
32976;SDS011;72327;50.842;4.450;2023-09-07T00:10:00;14.30;;;9.95;;
32976;SDS011;72327;50.842;4.450;2023-09-07T00:12:26;14.27;;;9.95;;
32976;SDS011;72327;50.842;4.450;2023-09-07T00:14:53;18.40;;;9.40;;
32976;SDS011;72327;50.842;4.450;2023-09-07T00:17:20;15.05;;;9.75;;
32976;SDS011;72327;50.842;4.450;2023-09-07T00:19:46;18.52;;;10.38;;
32976;SDS011;72327;50.842;4.450;2023-09-07T00:22:14;17.38;;;10.25;;
32976;SDS011;72327;50.842;4.450;2023-09-07T00:24:40;17.17;;;11.40;;
32976;SDS011;72327;50.842;4.450;2023-09-07T00:27:05;22.08;;;10.25;;
32976;SDS011;72327;50.842;4.450;2023-09-07T00:29:33;17.77;;;10.25;;
32976;SDS011;72327;50.842;4.450;2023-09-07T00:32:02;14.68;;;9.85;;
32976;SDS011;72327;50.842;4.450;2023-09-07T00:34:28;12.60;;;9.70;;
32976;SDS011;72327;50.842;4.450;2023-09-07T00:36:53;16.35;;;9.80;;
32976;SDS011;72327;50.842;4.450;2023-09-07T00:39:19;14.77;;;10.07;;
32976;SDS011;72327;50.842;4.450;2023-09-07T00:41:45;13.25;;;9.32;;
32976;SDS011;72327;50.842;4.450;2023-09-07T00:44:10;14.55;;;8.93;;
32976;SDS011;72327;50.842;4.450;2023-09-07T00:46:36;13.95;;;9.00;;
32976;SDS011;72327;50.842;4.450;2023-09-07T00:49:02;13.40;;;9.07;;
32976;SDS011;72327;50.842;4.450;2023-09-07T00:51:29;14.45;;;9.85;;
32976;SDS011;72327;50.842;4.450;2023-09-07T00:53:55;19.50;;;10.00;;
32976;SDS011;72327;50.842;4.450;2023-09-07T00:56:22;15.82;;;9.15;;
32976;SDS011;72327;50.842;4.450;2023-09-07T00:58:49;18.67;;;10.10;;
32976;SDS011;72327;50.842;4.450;2023-09-07T01:01:18;14.90;;;9.40;;
32976;SDS011;72327;50.842;4.450;2023-09-07T01:03:43;22.42;;;9.07;;
32976;SDS011;72327;50.842;4.450;2023-09-07T01:08:36;16.67;;;8.70;;
32976;SDS011;72327;50.842;4.450;2023-09-07T01:11:15;16.80;;;9.77;;
32976;SDS011;72327;50.842;4.450;2023-09-07T01:13:41;13.50;;;9.88;;
32976;SDS011;72327;50.842;4.450;2023-09-07T01:16:07;15.48;;;10.05;;
32976;SDS011;72327;50.842;4.450;2023-09-07T01:18:37;15.85;;;10.82;;
32976;SDS011;72327;50.842;4.450;2023-09-07T01:21:07;13.57;;;10.18;;
32976;SDS011;72327;50.842;4.450;2023-09-07T01:23:35;13.18;;;9.98;;
32976;SDS011;72327;50.842;4.450;2023-09-07T01:26:03;13.82;;;10.13;;
32976;SDS011;72327;50.842;4.450;2023-09-07T01:28:30;15.30;;;9.52;;
32976;SDS011;72327;50.842;4.450;2023-09-07T01:30:56;14.43;;;8.85;;
32976;SDS011;72327;50.842;4.450;2023-09-07T01:33:23;14.38;;;9.27;;
32976;SDS011;72327;50.842;4.450;2023-09-07T01:35:59;11.32;;;8.73;;
32976;SDS011;72327;50.842;4.450;2023-09-07T01:38:25;19.27;;;10.00;;
32976;SDS011;72327;50.842;4.450;2023-09-07T01:40:55;19.63;;;11.00;;
32976;SDS011;72327;50.842;4.450;2023-09-07T01:43:21;18.65;;;11.88;;
32976;SDS011;72327;50.842;4.450;2023-09-07T01:45:47;17.23;;;12.02;;
32976;SDS011;72327;50.842;4.450;2023-09-07T01:48:13;22.40;;;12.90;;
32976;SDS011;72327;50.842;4.450;2023-09-07T01:50:41;14.20;;;11.60;;
32976;SDS011;72327;50.842;4.450;2023-09-07T01:53:08;16.33;;;10.68;;
32976;SDS011;72327;50.842;4.450;2023-09-07T01:55:37;17.80;;;12.13;;
32976;SDS011;72327;50.842;4.450;2023-09-07T01:58:03;14.50;;;10.20;;
32976;SDS011;72327;50.842;4.450;2023-09-07T02:00:30;17.40;;;10.75;;
32976;SDS011;72327;50.842;4.450;2023-09-07T02:02:55;17.38;;;9.57;;
32976;SDS011;72327;50.842;4.450;2023-09-07T02:05:21;16.00;;;9.95;;
32976;SDS011;72327;50.842;4.450;2023-09-07T02:07:47;16.92;;;10.38;;
32976;SDS011;72327;50.842;4.450;2023-09-07T02:10:14;19.67;;;12.38;;
32976;SDS011;72327;50.842;4.450;2023-09-07T02:12:40;25.58;;;11.85;;
32976;SDS011;72327;50.842;4.450;2023-09-07T02:15:06;19.27;;;11.98;;
32976;SDS011;72327;50.842;4.450;2023-09-07T02:17:31;16.58;;;12.05;;
32976;SDS011;72327;50.842;4.450;2023-09-07T02:20:02;16.40;;;12.38;;
32976;SDS011;72327;50.842;4.450;2023-09-07T02:22:35;17.52;;;11.15;;
32976;SDS011;72327;50.842;4.450;2023-09-07T02:25:01;19.88;;;12.15;;
32976;SDS011;72327;50.842;4.450;2023-09-07T02:27:30;21.00;;;11.85;;
32976;SDS011;72327;50.842;4.450;2023-09-07T02:30:04;17.10;;;10.88;;
32976;SDS011;72327;50.842;4.450;2023-09-07T02:32:34;19.88;;;12.48;;
32976;SDS011;72327;50.842;4.450;2023-09-07T02:35:00;17.48;;;11.48;;
32976;SDS011;72327;50.842;4.450;2023-09-07T02:37:27;13.13;;;10.82;;
32976;SDS011;72327;50.842;4.450;2023-09-07T02:39:53;14.93;;;10.40;;
32976;SDS011;72327;50.842;4.450;2023-09-07T02:42:19;14.57;;;10.55;;
32976;SDS011;72327;50.842;4.450;2023-09-07T02:44:44;17.40;;;11.50;;
32976;SDS011;72327;50.842;4.450;2023-09-07T02:47:14;16.73;;;10.73;;
32976;SDS011;72327;50.842;4.450;2023-09-07T02:49:44;16.60;;;10.80;;
32976;SDS011;72327;50.842;4.450;2023-09-07T02:52:15;16.40;;;11.10;;
32976;SDS011;72327;50.842;4.450;2023-09-07T02:54:42;17.55;;;11.98;;
32976;SDS011;72327;50.842;4.450;2023-09-07T02:57:08;19.33;;;11.30;;
32976;SDS011;72327;50.842;4.450;2023-09-07T02:59:33;17.25;;;12.02;;
32976;SDS011;72327;50.842;4.450;2023-09-07T03:01:59;16.05;;;11.13;;
32976;SDS011;72327;50.842;4.450;2023-09-07T03:04:27;22.98;;;11.57;;
32976;SDS011;72327;50.842;4.450;2023-09-07T03:06:53;17.70;;;10.82;;
32976;SDS011;72327;50.842;4.450;2023-09-07T03:09:18;18.42;;;11.05;;
32976;SDS011;72327;50.842;4.450;2023-09-07T03:11:45;16.35;;;10.80;;
32976;SDS011;72327;50.842;4.450;2023-09-07T03:14:10;16.13;;;10.23;;
32976;SDS011;72327;50.842;4.450;2023-09-07T03:16:44;20.75;;;11.23;;
32976;SDS011;72327;50.842;4.450;2023-09-07T03:19:09;13.82;;;10.15;;
32976;SDS011;72327;50.842;4.450;2023-09-07T03:21:35;17.08;;;10.68;;
32976;SDS011;72327;50.842;4.450;2023-09-07T03:24:04;14.60;;;10.75;;
32976;SDS011;72327;50.842;4.450;2023-09-07T03:26:33;13.15;;;9.90;;
32976;SDS011;72327;50.842;4.450;2023-09-07T03:29:00;13.60;;;10.40;;
32976;SDS011;72327;50.842;4.450;2023-09-07T03:31:30;19.90;;;9.95;;
32976;SDS011;72327;50.842;4.450;2023-09-07T03:33:57;19.05;;;10.18;;
32976;SDS011;72327;50.842;4.450;2023-09-07T03:36:23;16.92;;;10.48;;
32976;SDS011;72327;50.842;4.450;2023-09-07T03:38:48;12.82;;;10.27;;
32976;SDS011;72327;50.842;4.450;2023-09-07T03:41:19;14.07;;;9.98;;
32976;SDS011;72327;50.842;4.450;2023-09-07T03:43:46;13.30;;;10.18;;
32976;SDS011;72327;50.842;4.450;2023-09-07T03:46:12;16.40;;;11.15;;
32976;SDS011;72327;50.842;4.450;2023-09-07T03:48:41;18.42;;;12.13;;
32976;SDS011;72327;50.842;4.450;2023-09-07T03:51:08;15.23;;;11.48;;
32976;SDS011;72327;50.842;4.450;2023-09-07T03:53:33;22.83;;;10.95;;
32976;SDS011;72327;50.842;4.450;2023-09-07T03:56:02;17.52;;;11.07;;
32976;SDS011;72327;50.842;4.450;2023-09-07T03:58:36;18.92;;;10.77;;
32976;SDS011;72327;50.842;4.450;2023-09-07T04:01:47;16.83;;;10.82;;
32976;SDS011;72327;50.842;4.450;2023-09-07T04:04:13;21.05;;;10.25;;
32976;SDS011;72327;50.842;4.450;2023-09-07T04:06:39;17.33;;;10.32;;
32976;SDS011;72327;50.842;4.450;2023-09-07T04:09:08;15.77;;;10.82;;
32976;SDS011;72327;50.842;4.450;2023-09-07T04:11:36;16.20;;;11.13;;
32976;SDS011;72327;50.842;4.450;2023-09-07T04:14:03;20.35;;;10.65;;
32976;SDS011;72327;50.842;4.450;2023-09-07T04:16:29;22.45;;;11.45;;
32976;SDS011;72327;50.842;4.450;2023-09-07T04:18:56;14.05;;;10.82;;
32976;SDS011;72327;50.842;4.450;2023-09-07T04:21:21;16.60;;;12.68;;
32976;SDS011;72327;50.842;4.450;2023-09-07T04:23:47;14.35;;;10.57;;
32976;SDS011;72327;50.842;4.450;2023-09-07T04:26:13;13.02;;;10.73;;
32976;SDS011;72327;50.842;4.450;2023-09-07T04:28:39;16.73;;;11.20;;
32976;SDS011;72327;50.842;4.450;2023-09-07T04:31:05;44.50;;;13.80;;
32976;SDS011;72327;50.842;4.450;2023-09-07T04:33:33;25.50;;;11.80;;
32976;SDS011;72327;50.842;4.450;2023-09-07T04:36:07;19.35;;;11.95;;
32976;SDS011;72327;50.842;4.450;2023-09-07T04:38:38;17.98;;;11.18;;
32976;SDS011;72327;50.842;4.450;2023-09-07T04:41:32;19.33;;;11.38;;
32976;SDS011;72327;50.842;4.450;2023-09-07T04:43:58;18.38;;;11.68;;
32976;SDS011;72327;50.842;4.450;2023-09-07T04:46:26;26.90;;;11.40;;
32976;SDS011;72327;50.842;4.450;2023-09-07T04:48:53;23.30;;;11.52;;
32976;SDS011;72327;50.842;4.450;2023-09-07T04:51:19;25.13;;;12.73;;
32976;SDS011;72327;50.842;4.450;2023-09-07T04:53:46;17.05;;;11.10;;
32976;SDS011;72327;50.842;4.450;2023-09-07T04:56:12;25.92;;;12.20;;
32976;SDS011;72327;50.842;4.450;2023-09-07T04:58:38;23.33;;;13.13;;
32976;SDS011;72327;50.842;4.450;2023-09-07T05:01:04;26.15;;;12.68;;
32976;SDS011;72327;50.842;4.450;2023-09-07T05:03:31;26.10;;;13.38;;
32976;SDS011;72327;50.842;4.450;2023-09-07T05:05:59;27.05;;;13.85;;
32976;SDS011;72327;50.842;4.450;2023-09-07T05:08:25;37.95;;;12.43;;
32976;SDS011;72327;50.842;4.450;2023-09-07T05:10:57;66.78;;;15.52;;
32976;SDS011;72327;50.842;4.450;2023-09-07T05:13:24;41.50;;;14.13;;
32976;SDS011;72327;50.842;4.450;2023-09-07T05:15:50;41.63;;;14.65;;
32976;SDS011;72327;50.842;4.450;2023-09-07T05:18:17;32.33;;;13.60;;
32976;SDS011;72327;50.842;4.450;2023-09-07T05:20:44;41.92;;;14.95;;
32976;SDS011;72327;50.842;4.450;2023-09-07T05:23:11;30.08;;;14.20;;
32976;SDS011;72327;50.842;4.450;2023-09-07T05:25:47;28.98;;;13.65;;
32976;SDS011;72327;50.842;4.450;2023-09-07T05:28:15;31.30;;;13.90;;
32976;SDS011;72327;50.842;4.450;2023-09-07T05:30:42;26.63;;;12.98;;
32976;SDS011;72327;50.842;4.450;2023-09-07T05:33:09;34.05;;;14.05;;
32976;SDS011;72327;50.842;4.450;2023-09-07T05:35:35;24.40;;;15.05;;
32976;SDS011;72327;50.842;4.450;2023-09-07T05:38:01;24.23;;;13.68;;
32976;SDS011;72327;50.842;4.450;2023-09-07T05:40:27;19.50;;;13.27;;
32976;SDS011;72327;50.842;4.450;2023-09-07T05:42:53;20.40;;;12.93;;
32976;SDS011;72327;50.842;4.450;2023-09-07T05:45:19;21.55;;;13.27;;
32976;SDS011;72327;50.842;4.450;2023-09-07T05:47:45;22.67;;;13.73;;
32976;SDS011;72327;50.842;4.450;2023-09-07T05:50:11;39.83;;;13.82;;
32976;SDS011;72327;50.842;4.450;2023-09-07T05:52:37;25.58;;;12.05;;
32976;SDS011;72327;50.842;4.450;2023-09-07T05:55:02;27.08;;;12.35;;
32976;SDS011;72327;50.842;4.450;2023-09-07T05:57:28;32.88;;;13.48;;
32976;SDS011;72327;50.842;4.450;2023-09-07T05:59:54;39.90;;;14.02;;
32976;SDS011;72327;50.842;4.450;2023-09-07T06:02:19;35.35;;;14.40;;
32976;SDS011;72327;50.842;4.450;2023-09-07T06:04:45;40.35;;;14.10;;
32976;SDS011;72327;50.842;4.450;2023-09-07T06:07:11;40.80;;;13.63;;
32976;SDS011;72327;50.842;4.450;2023-09-07T06:09:36;67.38;;;15.38;;
32976;SDS011;72327;50.842;4.450;2023-09-07T06:12:02;31.10;;;13.98;;
32976;SDS011;72327;50.842;4.450;2023-09-07T06:14:28;22.90;;;12.02;;
32976;SDS011;72327;50.842;4.450;2023-09-07T06:16:54;22.42;;;11.15;;
32976;SDS011;72327;50.842;4.450;2023-09-07T06:19:20;28.77;;;11.73;;
32976;SDS011;72327;50.842;4.450;2023-09-07T06:21:45;24.45;;;12.30;;
32976;SDS011;72327;50.842;4.450;2023-09-07T06:24:11;52.67;;;12.48;;
32976;SDS011;72327;50.842;4.450;2023-09-07T06:26:36;34.08;;;12.40;;
32976;SDS011;72327;50.842;4.450;2023-09-07T06:29:02;27.48;;;12.18;;
32976;SDS011;72327;50.842;4.450;2023-09-07T06:31:28;36.80;;;12.73;;
32976;SDS011;72327;50.842;4.450;2023-09-07T06:33:54;46.05;;;13.32;;
32976;SDS011;72327;50.842;4.450;2023-09-07T06:36:19;58.97;;;13.23;;
32976;SDS011;72327;50.842;4.450;2023-09-07T06:38:45;29.38;;;9.98;;
32976;SDS011;72327;50.842;4.450;2023-09-07T06:41:11;27.73;;;10.38;;
32976;SDS011;72327;50.842;4.450;2023-09-07T06:43:37;24.40;;;9.93;;
32976;SDS011;72327;50.842;4.450;2023-09-07T06:46:06;18.15;;;8.70;;
32976;SDS011;72327;50.842;4.450;2023-09-07T06:48:33;15.98;;;9.27;;
32976;SDS011;72327;50.842;4.450;2023-09-07T06:51:02;16.20;;;8.68;;
32976;SDS011;72327;50.842;4.450;2023-09-07T06:53:29;20.88;;;9.07;;
32976;SDS011;72327;50.842;4.450;2023-09-07T06:56:01;24.33;;;8.65;;
32976;SDS011;72327;50.842;4.450;2023-09-07T06:58:28;17.90;;;8.35;;
32976;SDS011;72327;50.842;4.450;2023-09-07T07:00:57;22.70;;;8.68;;
32976;SDS011;72327;50.842;4.450;2023-09-07T07:05:54;13.75;;;8.63;;
32976;SDS011;72327;50.842;4.450;2023-09-07T07:08:20;15.25;;;7.82;;
32976;SDS011;72327;50.842;4.450;2023-09-07T07:10:46;13.90;;;6.93;;
32976;SDS011;72327;50.842;4.450;2023-09-07T07:13:11;23.48;;;8.23;;
32976;SDS011;72327;50.842;4.450;2023-09-07T07:15:37;20.90;;;7.30;;
32976;SDS011;72327;50.842;4.450;2023-09-07T07:18:03;18.95;;;7.50;;
32976;SDS011;72327;50.842;4.450;2023-09-07T07:20:33;19.95;;;7.97;;
32976;SDS011;72327;50.842;4.450;2023-09-07T07:23:00;13.77;;;6.57;;
32976;SDS011;72327;50.842;4.450;2023-09-07T07:25:25;15.88;;;6.43;;
32976;SDS011;72327;50.842;4.450;2023-09-07T07:27:51;10.55;;;6.65;;
32976;SDS011;72327;50.842;4.450;2023-09-07T07:30:16;20.67;;;6.35;;
32976;SDS011;72327;50.842;4.450;2023-09-07T07:32:42;23.38;;;6.80;;
32976;SDS011;72327;50.842;4.450;2023-09-07T07:35:08;18.38;;;6.45;;
32976;SDS011;72327;50.842;4.450;2023-09-07T07:37:33;13.35;;;6.75;;
32976;SDS011;72327;50.842;4.450;2023-09-07T07:39:59;19.98;;;7.72;;
32976;SDS011;72327;50.842;4.450;2023-09-07T07:42:24;14.90;;;6.30;;
32976;SDS011;72327;50.842;4.450;2023-09-07T07:44:50;10.95;;;6.35;;
32976;SDS011;72327;50.842;4.450;2023-09-07T07:47:16;12.60;;;6.50;;
32976;SDS011;72327;50.842;4.450;2023-09-07T07:49:41;13.68;;;6.55;;
32976;SDS011;72327;50.842;4.450;2023-09-07T07:52:07;15.82;;;5.80;;
32976;SDS011;72327;50.842;4.450;2023-09-07T07:54:33;14.68;;;6.40;;
32976;SDS011;72327;50.842;4.450;2023-09-07T07:56:59;11.38;;;6.20;;
32976;SDS011;72327;50.842;4.450;2023-09-07T07:59:25;10.43;;;5.80;;
32976;SDS011;72327;50.842;4.450;2023-09-07T08:01:50;11.25;;;6.30;;
32976;SDS011;72327;50.842;4.450;2023-09-07T08:04:16;9.65;;;5.70;;
32976;SDS011;72327;50.842;4.450;2023-09-07T08:06:41;8.07;;;5.35;;
32976;SDS011;72327;50.842;4.450;2023-09-07T08:09:07;8.20;;;5.88;;
32976;SDS011;72327;50.842;4.450;2023-09-07T08:11:33;13.15;;;5.60;;
32976;SDS011;72327;50.842;4.450;2023-09-07T08:13:59;11.70;;;5.70;;
32976;SDS011;72327;50.842;4.450;2023-09-07T08:16:24;19.98;;;6.20;;
32976;SDS011;72327;50.842;4.450;2023-09-07T08:18:50;14.07;;;5.47;;
32976;SDS011;72327;50.842;4.450;2023-09-07T08:21:16;6.55;;;4.78;;
32976;SDS011;72327;50.842;4.450;2023-09-07T08:23:43;13.30;;;5.05;;
32976;SDS011;72327;50.842;4.450;2023-09-07T08:26:08;11.20;;;5.43;;
32976;SDS011;72327;50.842;4.450;2023-09-07T08:28:34;12.60;;;6.07;;
32976;SDS011;72327;50.842;4.450;2023-09-07T08:31:00;9.85;;;5.15;;
32976;SDS011;72327;50.842;4.450;2023-09-07T08:33:26;11.07;;;5.72;;
32976;SDS011;72327;50.842;4.450;2023-09-07T08:35:57;8.90;;;5.03;;
32976;SDS011;72327;50.842;4.450;2023-09-07T08:38:24;13.27;;;5.20;;
32976;SDS011;72327;50.842;4.450;2023-09-07T08:40:53;6.60;;;4.53;;
32976;SDS011;72327;50.842;4.450;2023-09-07T08:43:20;13.93;;;5.50;;
32976;SDS011;72327;50.842;4.450;2023-09-07T08:45:49;30.13;;;6.53;;
32976;SDS011;72327;50.842;4.450;2023-09-07T08:48:22;8.35;;;5.20;;
32976;SDS011;72327;50.842;4.450;2023-09-07T08:50:50;11.75;;;5.28;;
32976;SDS011;72327;50.842;4.450;2023-09-07T08:53:17;18.20;;;5.40;;
32976;SDS011;72327;50.842;4.450;2023-09-07T08:55:45;26.17;;;6.07;;
32976;SDS011;72327;50.842;4.450;2023-09-07T08:58:10;12.75;;;5.30;;
32976;SDS011;72327;50.842;4.450;2023-09-07T09:00:36;18.42;;;5.25;;
32976;SDS011;72327;50.842;4.450;2023-09-07T09:03:03;20.67;;;5.60;;
32976;SDS011;72327;50.842;4.450;2023-09-07T09:05:29;12.05;;;5.30;;
32976;SDS011;72327;50.842;4.450;2023-09-07T09:08:05;11.73;;;5.53;;
32976;SDS011;72327;50.842;4.450;2023-09-07T09:10:30;7.47;;;4.60;;
32976;SDS011;72327;50.842;4.450;2023-09-07T09:12:56;14.23;;;5.78;;
32976;SDS011;72327;50.842;4.450;2023-09-07T09:15:24;9.02;;;4.60;;
32976;SDS011;72327;50.842;4.450;2023-09-07T09:17:51;16.52;;;5.05;;
32976;SDS011;72327;50.842;4.450;2023-09-07T09:20:24;12.82;;;5.10;;
32976;SDS011;72327;50.842;4.450;2023-09-07T09:22:52;10.38;;;4.80;;
32976;SDS011;72327;50.842;4.450;2023-09-07T09:25:19;7.43;;;4.60;;
32976;SDS011;72327;50.842;4.450;2023-09-07T09:27:45;11.45;;;4.80;;
32976;SDS011;72327;50.842;4.450;2023-09-07T09:30:11;10.48;;;5.25;;
32976;SDS011;72327;50.842;4.450;2023-09-07T09:32:40;15.50;;;5.10;;
32976;SDS011;72327;50.842;4.450;2023-09-07T09:35:06;8.93;;;4.25;;
32976;SDS011;72327;50.842;4.450;2023-09-07T09:37:33;19.83;;;5.70;;
32976;SDS011;72327;50.842;4.450;2023-09-07T09:39:59;14.55;;;4.97;;
32976;SDS011;72327;50.842;4.450;2023-09-07T09:42:27;12.73;;;4.50;;
32976;SDS011;72327;50.842;4.450;2023-09-07T09:44:52;10.85;;;5.10;;
32976;SDS011;72327;50.842;4.450;2023-09-07T09:47:21;79.32;;;8.80;;
32976;SDS011;72327;50.842;4.450;2023-09-07T09:49:48;62.67;;;7.05;;
32976;SDS011;72327;50.842;4.450;2023-09-07T09:52:15;14.55;;;4.70;;
32976;SDS011;72327;50.842;4.450;2023-09-07T09:54:41;8.40;;;4.63;;
32976;SDS011;72327;50.842;4.450;2023-09-07T09:57:08;8.32;;;4.22;;
32976;SDS011;72327;50.842;4.450;2023-09-07T09:59:34;16.98;;;5.45;;
32976;SDS011;72327;50.842;4.450;2023-09-07T10:01:59;8.85;;;5.05;;
32976;SDS011;72327;50.842;4.450;2023-09-07T10:04:27;11.73;;;6.13;;
32976;SDS011;72327;50.842;4.450;2023-09-07T10:07:00;11.75;;;4.53;;
32976;SDS011;72327;50.842;4.450;2023-09-07T10:09:31;6.30;;;4.28;;
32976;SDS011;72327;50.842;4.450;2023-09-07T10:11:58;13.57;;;5.10;;
32976;SDS011;72327;50.842;4.450;2023-09-07T10:14:25;15.57;;;4.80;;
32976;SDS011;72327;50.842;4.450;2023-09-07T10:16:51;13.70;;;5.05;;
32976;SDS011;72327;50.842;4.450;2023-09-07T10:19:21;7.88;;;4.97;;
32976;SDS011;72327;50.842;4.450;2023-09-07T10:21:47;13.60;;;4.20;;
32976;SDS011;72327;50.842;4.450;2023-09-07T10:24:26;7.72;;;4.80;;
32976;SDS011;72327;50.842;4.450;2023-09-07T10:29:27;9.45;;;4.65;;
32976;SDS011;72327;50.842;4.450;2023-09-07T10:31:53;7.78;;;4.15;;
32976;SDS011;72327;50.842;4.450;2023-09-07T10:34:19;13.00;;;4.53;;
32976;SDS011;72327;50.842;4.450;2023-09-07T10:36:47;8.43;;;4.30;;
32976;SDS011;72327;50.842;4.450;2023-09-07T10:39:16;7.40;;;4.13;;
32976;SDS011;72327;50.842;4.450;2023-09-07T10:41:42;10.02;;;4.65;;
32976;SDS011;72327;50.842;4.450;2023-09-07T10:44:08;16.83;;;3.90;;
32976;SDS011;72327;50.842;4.450;2023-09-07T10:46:38;7.47;;;3.92;;
32976;SDS011;72327;50.842;4.450;2023-09-07T10:49:06;11.65;;;4.40;;
32976;SDS011;72327;50.842;4.450;2023-09-07T10:51:39;9.43;;;4.78;;
32976;SDS011;72327;50.842;4.450;2023-09-07T10:54:14;11.43;;;3.97;;
32976;SDS011;72327;50.842;4.450;2023-09-07T10:56:44;13.30;;;4.20;;
32976;SDS011;72327;50.842;4.450;2023-09-07T10:59:11;11.00;;;3.83;;
32976;SDS011;72327;50.842;4.450;2023-09-07T11:01:37;11.02;;;3.58;;
32976;SDS011;72327;50.842;4.450;2023-09-07T11:04:03;12.35;;;4.57;;
32976;SDS011;72327;50.842;4.450;2023-09-07T11:06:30;16.05;;;4.03;;
32976;SDS011;72327;50.842;4.450;2023-09-07T11:08:59;3.72;;;3.20;;
32976;SDS011;72327;50.842;4.450;2023-09-07T11:11:26;14.05;;;3.53;;
32976;SDS011;72327;50.842;4.450;2023-09-07T11:13:52;13.25;;;3.47;;
32976;SDS011;72327;50.842;4.450;2023-09-07T11:16:17;8.48;;;3.65;;
32976;SDS011;72327;50.842;4.450;2023-09-07T11:18:44;9.48;;;3.42;;
32976;SDS011;72327;50.842;4.450;2023-09-07T11:21:11;12.55;;;3.60;;
32976;SDS011;72327;50.842;4.450;2023-09-07T11:23:37;8.55;;;3.45;;
32976;SDS011;72327;50.842;4.450;2023-09-07T11:26:06;11.25;;;3.83;;
32976;SDS011;72327;50.842;4.450;2023-09-07T11:28:33;12.10;;;3.53;;
32976;SDS011;72327;50.842;4.450;2023-09-07T11:30:59;6.03;;;3.30;;
32976;SDS011;72327;50.842;4.450;2023-09-07T11:33:25;10.85;;;3.33;;
32976;SDS011;72327;50.842;4.450;2023-09-07T11:35:52;5.18;;;3.05;;
32976;SDS011;72327;50.842;4.450;2023-09-07T11:38:19;6.25;;;3.15;;
32976;SDS011;72327;50.842;4.450;2023-09-07T11:40:45;8.70;;;3.28;;
32976;SDS011;72327;50.842;4.450;2023-09-07T11:43:11;7.50;;;3.30;;
32976;SDS011;72327;50.842;4.450;2023-09-07T11:45:39;9.50;;;3.67;;
32976;SDS011;72327;50.842;4.450;2023-09-07T11:48:08;6.10;;;3.63;;
32976;SDS011;72327;50.842;4.450;2023-09-07T11:50:34;15.93;;;3.90;;
32976;SDS011;72327;50.842;4.450;2023-09-07T11:53:00;6.20;;;3.10;;
32976;SDS011;72327;50.842;4.450;2023-09-07T11:55:26;10.02;;;3.08;;
32976;SDS011;72327;50.842;4.450;2023-09-07T11:57:51;6.05;;;3.42;;
32976;SDS011;72327;50.842;4.450;2023-09-07T12:00:17;13.57;;;3.45;;
32976;SDS011;72327;50.842;4.450;2023-09-07T12:02:44;6.85;;;3.22;;
32976;SDS011;72327;50.842;4.450;2023-09-07T12:05:09;6.53;;;3.33;;
32976;SDS011;72327;50.842;4.450;2023-09-07T12:07:39;5.60;;;3.40;;
32976;SDS011;72327;50.842;4.450;2023-09-07T12:10:05;21.60;;;4.80;;
32976;SDS011;72327;50.842;4.450;2023-09-07T12:12:35;10.20;;;3.83;;
32976;SDS011;72327;50.842;4.450;2023-09-07T12:15:01;11.52;;;3.60;;
32976;SDS011;72327;50.842;4.450;2023-09-07T12:17:28;9.15;;;3.70;;
32976;SDS011;72327;50.842;4.450;2023-09-07T12:19:54;8.63;;;3.60;;
32976;SDS011;72327;50.842;4.450;2023-09-07T12:22:20;7.55;;;3.83;;
32976;SDS011;72327;50.842;4.450;2023-09-07T12:24:46;4.32;;;3.13;;
32976;SDS011;72327;50.842;4.450;2023-09-07T12:27:12;13.88;;;3.70;;
32976;SDS011;72327;50.842;4.450;2023-09-07T12:29:37;7.80;;;3.45;;
32976;SDS011;72327;50.842;4.450;2023-09-07T12:32:03;7.35;;;3.72;;
32976;SDS011;72327;50.842;4.450;2023-09-07T12:34:29;7.20;;;3.35;;
32976;SDS011;72327;50.842;4.450;2023-09-07T12:36:54;10.10;;;3.42;;
32976;SDS011;72327;50.842;4.450;2023-09-07T12:39:20;9.07;;;3.90;;
32976;SDS011;72327;50.842;4.450;2023-09-07T12:41:46;14.13;;;3.33;;
32976;SDS011;72327;50.842;4.450;2023-09-07T12:44:11;12.10;;;4.18;;
32976;SDS011;72327;50.842;4.450;2023-09-07T12:46:38;14.50;;;4.07;;
32976;SDS011;72327;50.842;4.450;2023-09-07T12:49:03;8.13;;;3.70;;
32976;SDS011;72327;50.842;4.450;2023-09-07T12:51:29;9.98;;;3.67;;
32976;SDS011;72327;50.842;4.450;2023-09-07T12:53:55;10.60;;;3.70;;
32976;SDS011;72327;50.842;4.450;2023-09-07T12:56:21;12.75;;;3.75;;
32976;SDS011;72327;50.842;4.450;2023-09-07T12:58:47;6.68;;;3.45;;
32976;SDS011;72327;50.842;4.450;2023-09-07T13:01:12;6.07;;;3.22;;
32976;SDS011;72327;50.842;4.450;2023-09-07T13:03:40;10.80;;;3.75;;
32976;SDS011;72327;50.842;4.450;2023-09-07T13:06:06;13.30;;;3.83;;
32976;SDS011;72327;50.842;4.450;2023-09-07T13:08:31;12.00;;;3.80;;
32976;SDS011;72327;50.842;4.450;2023-09-07T13:10:58;9.20;;;4.50;;
32976;SDS011;72327;50.842;4.450;2023-09-07T13:13:23;8.25;;;3.95;;
32976;SDS011;72327;50.842;4.450;2023-09-07T13:15:57;21.38;;;3.97;;
32976;SDS011;72327;50.842;4.450;2023-09-07T13:18:23;10.45;;;3.80;;
32976;SDS011;72327;50.842;4.450;2023-09-07T13:20:49;10.38;;;4.25;;
32976;SDS011;72327;50.842;4.450;2023-09-07T13:23:18;8.40;;;3.60;;
32976;SDS011;72327;50.842;4.450;2023-09-07T13:25:44;17.02;;;3.40;;
32976;SDS011;72327;50.842;4.450;2023-09-07T13:28:09;20.20;;;4.57;;
32976;SDS011;72327;50.842;4.450;2023-09-07T13:30:35;16.25;;;3.83;;
32976;SDS011;72327;50.842;4.450;2023-09-07T13:33:01;12.68;;;3.95;;
32976;SDS011;72327;50.842;4.450;2023-09-07T13:35:26;13.80;;;4.20;;
32976;SDS011;72327;50.842;4.450;2023-09-07T13:37:52;13.43;;;4.15;;
32976;SDS011;72327;50.842;4.450;2023-09-07T13:40:18;8.65;;;3.85;;
32976;SDS011;72327;50.842;4.450;2023-09-07T13:42:44;16.80;;;4.78;;
32976;SDS011;72327;50.842;4.450;2023-09-07T13:45:13;10.35;;;3.85;;
32976;SDS011;72327;50.842;4.450;2023-09-07T13:47:38;10.18;;;3.22;;
32976;SDS011;72327;50.842;4.450;2023-09-07T13:50:04;14.77;;;3.72;;
32976;SDS011;72327;50.842;4.450;2023-09-07T13:52:30;6.95;;;3.85;;
32976;SDS011;72327;50.842;4.450;2023-09-07T13:54:56;6.90;;;3.67;;
32976;SDS011;72327;50.842;4.450;2023-09-07T13:57:22;6.75;;;3.30;;
32976;SDS011;72327;50.842;4.450;2023-09-07T13:59:47;10.73;;;3.92;;
32976;SDS011;72327;50.842;4.450;2023-09-07T14:02:13;8.57;;;3.53;;
32976;SDS011;72327;50.842;4.450;2023-09-07T14:04:39;9.73;;;4.13;;
32976;SDS011;72327;50.842;4.450;2023-09-07T14:07:04;8.13;;;3.90;;
32976;SDS011;72327;50.842;4.450;2023-09-07T14:09:30;7.75;;;4.20;;
32976;SDS011;72327;50.842;4.450;2023-09-07T14:11:56;7.35;;;3.63;;
32976;SDS011;72327;50.842;4.450;2023-09-07T14:14:21;8.57;;;4.00;;
32976;SDS011;72327;50.842;4.450;2023-09-07T14:16:47;8.57;;;3.97;;
32976;SDS011;72327;50.842;4.450;2023-09-07T14:19:15;13.70;;;4.55;;
32976;SDS011;72327;50.842;4.450;2023-09-07T14:21:40;5.65;;;3.13;;
32976;SDS011;72327;50.842;4.450;2023-09-07T14:24:06;10.02;;;3.25;;
32976;SDS011;72327;50.842;4.450;2023-09-07T14:26:32;6.45;;;2.78;;
32976;SDS011;72327;50.842;4.450;2023-09-07T14:28:57;13.57;;;3.38;;
32976;SDS011;72327;50.842;4.450;2023-09-07T14:31:23;10.30;;;3.75;;
32976;SDS011;72327;50.842;4.450;2023-09-07T14:33:48;10.60;;;3.80;;
32976;SDS011;72327;50.842;4.450;2023-09-07T14:36:14;13.90;;;4.50;;
32976;SDS011;72327;50.842;4.450;2023-09-07T14:38:41;14.10;;;4.20;;